West Salem, IL (62476)

11:28 PM CDT on July 27, 2014 (GMT -0500)
Southern Illinois (KILWESTS3) Elev 518 ft | 38.52 °N, 88.00 °W | Change Station

Current weather conditions updated 18 minutes ago

Clear
Clear
72.4 °F
Feels Like 76 °F
N
5.6
Wind Variable Wind from North
Gusts 5.6 mph

Tomorrow is forecast to be Much Cooler than today.

Today
High -- | Low -- °F
--% Chance of Precip.
Yesterday
High -- | Low -- °F
Precip. -- in
5:49 AM 8:07 PM
New Moon, 1% visible
Pressure 29.93 in
Visibility 10.0 miles
Clouds Clear
Heat Index 76 °F
Dew Point 60 °F
Humidity 64%
Rainfall 0.00 in
Snow Depth Not available.
UV 0 out of 12
Pollen 6.30 out of 12
Air Quality Not available.
Flu Activity Not available.
METAR KOLY 280415Z AUTO 30006KT 10SM CLR 20/15 A2993 RMK AO2

More Conditions Fewer Conditions

Pressure 29.93 in
Visibility 10.0 miles
Clouds Clear
Heat Index 76 °F
Dew Point 60 °F
Humidity 64%
Rainfall 0.00 in
Snow Depth Not available.
UV 0 out of 12
Pollen 6.30 out of 12
Air Quality Not available.
Flu Activity Not available.
METAR KOLY 280415Z AUTO 30006KT 10SM CLR 20/15 A2993 RMK AO2

More Conditions Fewer Conditions

10-Day Weather Forecast

Almanac

Astronomy

Jul. 27, 2014 Rise Set
Actual Time 5:49 AM CDT 8:07 PM CDT
Civil Twilight 5:19 AM CDT 8:36 PM CDT
Nautical Twilight 4:42 AM CDT 9:13 PM CDT
Astronomical Twilight 4:02 AM CDT 9:53 PM CDT
Moon 6:34 AM CDT (7/27) 8:18 PM CDT (7/27)
Length of Visible Light 15h 17m
Length of Day
14h 17m
Tomorrow will be 1m 45s shorter.
New Moon, 1% of the Moon is Illuminated
Jul 28
New Moon
Aug 3
First Quarter
Aug 10
Full
Aug 17
Last Quarter
Aug 25
New

Today's Extremes

State Highs State Lows

Community

WunderPhotos

Upload Photos

1,738,300 photos uploaded!

Nearby

Snow Depth

Station Depth Elevation
No new snow has been reported.

Earthquake Activity

City Distance Mag. Time & Date
No recent earthquake activity has been reported nearby.
Minimum magnitude displayed is 2.5.

Coastal Water Temperatures

Place Temperature
No Stations Reporting

Nearby Weather Stations

Station Location Temp. Heat Index Dew Point Humidity Wind Precip. Elev Updated Type
Southern Illinois, West Salem, IL 72.4 °F 76 °F 60 °F 64% North  at  5.6 mph 0.00 in / hr 518 ft 11:10 PM CDT Rapid Fire
Parkersburg/Wynoose, Olney, IL 69.6 °F - 62 °F 77% NW  at  2.0 mph 0.00 in / hr 418 ft 11:28 PM CDT Normal
North East Olney, Il, Olney, IL 71.6 °F - 71 °F 98% NNW  at  3.7 mph - / hr 479 ft 11:24 PM CDT Normal
North of Baker's Garage, Albion, IL 70.7 °F 74 °F 60 °F 70% ESE  at  2.0 mph 0.00 in / hr 490 ft 11:28 PM CDT Rapid Fire

Show More Stations Show Fewer Stations